Time;durP1;ratioP1;P1;durP2;ratioP2;P2;SDS_P1;SDS_P2;PMS_P1;PMS_P2;Temp;Humidity;BMP_temperature;BMP_pressure;BME280_temperature;BME280_humidity;BME280_pressure;Samples;Min_cycle;Max_cycle;Signal;HPM_P1;HPM_P2
2023/09/18 00:01:52;;;;;;;;;;;18.40;99.90;;;;;;5083799;28;19921;-76
2023/09/18 00:04:20;;;;;;;;;;;18.40;99.90;;;;;;5083345;28;19924;-76
2023/09/18 00:06:46;;;;;;;;;;;18.40;99.90;;;;;;5084018;28;19956;-76
2023/09/18 00:09:13;;;;;;;;;;;18.30;99.90;;;;;;5083773;28;20163;-76
2023/09/18 00:11:40;;;;;;;;;;;18.30;99.90;;;;;;5081804;28;20460;-76
2023/09/18 00:14:07;;;;;;;;;;;18.30;99.90;;;;;;5083682;28;19921;-76
2023/09/18 00:16:33;;;;;;;;;;;18.30;99.90;;;;;;5083452;28;20283;-76
2023/09/18 00:19:00;;;;;;;;;;;18.20;99.90;;;;;;5083516;28;20205;-76
2023/09/18 00:21:30;;;;;;;;;;;18.20;99.90;;;;;;5087094;28;19920;-76
2023/09/18 00:23:57;;;;;;;;;;;18.20;99.90;;;;;;5083594;28;20141;-76
2023/09/18 00:26:24;;;;;;;;;;;18.10;99.90;;;;;;5083435;28;19950;-75
2023/09/18 00:28:51;;;;;;;;;;;18.10;99.90;;;;;;5083712;28;19983;-76
2023/09/18 00:31:17;;;;;;;;;;;18.10;99.90;;;;;;5083652;28;20254;-76
2023/09/18 00:33:44;;;;;;;;;;;18.10;99.90;;;;;;5083761;28;19927;-76
2023/09/18 00:36:11;;;;;;;;;;;18.10;99.90;;;;;;5083126;28;20095;-76
2023/09/18 00:38:39;;;;;;;;;;;18.00;99.90;;;;;;5078707;28;19943;-76
2023/09/18 00:41:06;;;;;;;;;;;18.00;99.90;;;;;;5083348;28;20123;-76
2023/09/18 00:43:32;;;;;;;;;;;18.00;99.90;;;;;;5086985;28;19924;-76
2023/09/18 00:45:59;;;;;;;;;;;17.90;99.90;;;;;;5082655;28;19983;-76
2023/09/18 00:48:27;;;;;;;;;;;17.90;99.90;;;;;;5086879;28;19979;-76
2023/09/18 00:50:54;;;;;;;;;;;17.90;99.90;;;;;;5083081;28;19925;-76
2023/09/18 00:53:22;;;;;;;;;;;17.90;99.90;;;;;;5097008;28;19920;-76
2023/09/18 00:55:51;;;;;;;;;;;17.80;99.90;;;;;;5092929;28;19970;-76
2023/09/18 00:58:18;;;;;;;;;;;17.80;99.90;;;;;;5089378;28;19920;-76
2023/09/18 01:00:45;;;;;;;;;;;17.80;99.90;;;;;;5090288;28;19920;-76
2023/09/18 01:03:12;;;;;;;;;;;17.80;99.90;;;;;;5083317;28;20003;-75
2023/09/18 01:05:39;;;;;;;;;;;17.80;99.90;;;;;;5083779;28;19975;-76
2023/09/18 01:08:05;;;;;;;;;;;17.80;99.90;;;;;;5086114;28;19921;-75
2023/09/18 01:10:34;;;;;;;;;;;17.70;99.90;;;;;;5089933;28;20279;-76
2023/09/18 01:13:05;;;;;;;;;;;17.70;99.90;;;;;;5087092;28;19991;-76
2023/09/18 01:15:35;;;;;;;;;;;17.70;99.90;;;;;;5086085;28;19929;-76
2023/09/18 01:18:03;;;;;;;;;;;17.60;99.90;;;;;;5087008;28;19921;-76
2023/09/18 01:20:29;;;;;;;;;;;17.60;99.90;;;;;;5086998;28;20153;-76
2023/09/18 01:22:57;;;;;;;;;;;17.60;99.90;;;;;;5087004;28;19921;-76
2023/09/18 01:25:24;;;;;;;;;;;17.60;99.90;;;;;;5086271;28;19987;-76
2023/09/18 01:27:51;;;;;;;;;;;17.50;99.90;;;;;;5086430;28;20253;-76
2023/09/18 01:30:18;;;;;;;;;;;17.50;99.90;;;;;;5085636;28;20210;-76
2023/09/18 01:32:45;;;;;;;;;;;17.50;99.90;;;;;;5086633;28;19924;-76
2023/09/18 01:35:13;;;;;;;;;;;17.50;99.90;;;;;;5086215;28;19980;-76
2023/09/18 01:37:40;;;;;;;;;;;17.40;99.90;;;;;;5087218;28;19963;-76
2023/09/18 01:40:09;;;;;;;;;;;17.40;99.90;;;;;;5094955;28;19924;-76
2023/09/18 01:42:36;;;;;;;;;;;17.40;99.90;;;;;;5086560;28;20183;-76
2023/09/18 01:45:04;;;;;;;;;;;17.40;99.90;;;;;;5089304;28;19979;-76
2023/09/18 01:47:31;;;;;;;;;;;17.40;99.90;;;;;;5086562;28;19958;-76
2023/09/18 01:49:57;;;;;;;;;;;17.40;99.90;;;;;;5086369;28;19983;-76
2023/09/18 01:52:24;;;;;;;;;;;17.30;99.90;;;;;;5086470;28;19932;-76
2023/09/18 01:54:51;;;;;;;;;;;17.30;99.90;;;;;;5086087;28;20254;-76
2023/09/18 01:57:19;;;;;;;;;;;17.30;99.90;;;;;;5088790;28;20118;-76
2023/09/18 01:59:45;;;;;;;;;;;17.20;99.90;;;;;;5085771;28;19979;-76
2023/09/18 02:02:12;;;;;;;;;;;17.20;99.90;;;;;;5085769;28;19956;-76
2023/09/18 02:04:39;;;;;;;;;;;17.20;99.90;;;;;;5085608;28;19983;-76
2023/09/18 02:07:06;;;;;;;;;;;17.20;99.90;;;;;;5086209;28;19920;-76
2023/09/18 02:09:33;;;;;;;;;;;17.20;99.90;;;;;;5085906;28;19959;-75
2023/09/18 02:11:59;;;;;;;;;;;17.20;99.90;;;;;;5084466;28;20117;-76
2023/09/18 02:14:30;;;;;;;;;;;17.10;99.90;;;;;;5085438;28;19922;-76
2023/09/18 02:16:57;;;;;;;;;;;17.10;99.90;;;;;;5090372;28;19980;-76
2023/09/18 02:19:23;;;;;;;;;;;17.10;99.90;;;;;;5085681;28;19921;-76
2023/09/18 02:21:50;;;;;;;;;;;17.00;99.90;;;;;;5085843;28;20148;-76
2023/09/18 02:24:16;;;;;;;;;;;17.00;99.90;;;;;;5084962;28;19983;-76
2023/09/18 02:26:45;;;;;;;;;;;17.00;99.90;;;;;;5085783;28;20071;-76
2023/09/18 02:29:11;;;;;;;;;;;16.90;99.90;;;;;;5085378;28;19921;-76
2023/09/18 02:31:39;;;;;;;;;;;16.90;99.90;;;;;;5080558;28;20229;-76
2023/09/18 02:34:07;;;;;;;;;;;16.90;99.90;;;;;;5085351;28;19982;-76
2023/09/18 02:36:33;;;;;;;;;;;16.90;99.90;;;;;;5088014;28;19935;-76
2023/09/18 02:39:00;;;;;;;;;;;16.80;99.90;;;;;;5096856;28;19979;-76
2023/09/18 02:41:26;;;;;;;;;;;16.80;99.90;;;;;;5088737;28;19983;-76
2023/09/18 02:43:53;;;;;;;;;;;16.80;99.90;;;;;;5085348;28;19979;-76
2023/09/18 02:46:20;;;;;;;;;;;16.70;99.90;;;;;;5084972;28;20161;-76
2023/09/18 02:48:48;;;;;;;;;;;16.80;99.90;;;;;;5085289;28;19920;-76
2023/09/18 02:51:14;;;;;;;;;;;16.70;99.90;;;;;;5085193;28;19984;-76
2023/09/18 02:53:41;;;;;;;;;;;16.70;99.90;;;;;;5085176;28;19921;-76
2023/09/18 02:56:07;;;;;;;;;;;16.70;99.90;;;;;;5084688;28;19999;-76
2023/09/18 02:58:34;;;;;;;;;;;16.70;99.90;;;;;;5090025;28;20002;-76
2023/09/18 03:01:03;;;;;;;;;;;16.70;99.90;;;;;;5084710;28;19985;-76
2023/09/18 03:03:30;;;;;;;;;;;16.70;99.90;;;;;;5090193;28;19984;-76
2023/09/18 03:06:03;;;;;;;;;;;16.70;99.90;;;;;;5084419;28;19999;-76
2023/09/18 03:08:29;;;;;;;;;;;16.70;99.90;;;;;;5084470;28;20157;-76
2023/09/18 03:10:56;;;;;;;;;;;16.70;99.90;;;;;;5083726;28;19988;-76
2023/09/18 03:13:23;;;;;;;;;;;16.70;99.90;;;;;;5084520;28;20274;-76
2023/09/18 03:15:49;;;;;;;;;;;16.70;99.90;;;;;;5084153;28;19963;-76
2023/09/18 03:18:16;;;;;;;;;;;16.70;99.90;;;;;;5084205;28;20257;-76
2023/09/18 03:20:42;;;;;;;;;;;16.70;99.90;;;;;;5084563;28;19966;-76
2023/09/18 03:23:10;;;;;;;;;;;16.70;99.90;;;;;;5084526;28;19921;-76
2023/09/18 03:25:38;;;;;;;;;;;16.60;99.90;;;;;;5079169;28;19975;-76
2023/09/18 03:28:05;;;;;;;;;;;16.60;99.90;;;;;;5083617;28;19927;-76
2023/09/18 03:30:31;;;;;;;;;;;16.60;99.90;;;;;;5084312;28;19963;-76
2023/09/18 03:32:58;;;;;;;;;;;16.60;99.90;;;;;;5084537;28;19921;-76
2023/09/18 03:35:24;;;;;;;;;;;16.60;99.90;;;;;;5083632;28;19956;-76
2023/09/18 03:37:52;;;;;;;;;;;16.60;99.90;;;;;;5084299;28;19975;-76
2023/09/18 03:40:20;;;;;;;;;;;16.60;99.90;;;;;;5084208;28;19920;-76
2023/09/18 03:42:47;;;;;;;;;;;16.60;99.90;;;;;;5087405;28;19955;-76
2023/09/18 03:45:13;;;;;;;;;;;16.70;99.90;;;;;;5083407;28;19984;-76
2023/09/18 03:47:40;;;;;;;;;;;16.60;99.90;;;;;;5084211;28;19983;-76
2023/09/18 03:50:08;;;;;;;;;;;16.70;99.90;;;;;;5083852;28;19985;-76
2023/09/18 03:52:35;;;;;;;;;;;16.60;99.90;;;;;;5083827;28;19956;-76
2023/09/18 03:55:01;;;;;;;;;;;16.60;99.90;;;;;;5083248;28;19963;-76
2023/09/18 03:57:29;;;;;;;;;;;16.50;99.90;;;;;;5084184;28;19956;-76
2023/09/18 03:59:56;;;;;;;;;;;16.40;99.90;;;;;;5083584;28;20003;-76
2023/09/18 04:02:23;;;;;;;;;;;16.30;99.90;;;;;;5083813;28;19921;-76
2023/09/18 04:04:49;;;;;;;;;;;16.40;99.90;;;;;;5083129;28;19983;-76
2023/09/18 04:07:16;;;;;;;;;;;16.40;99.90;;;;;;5083984;28;19979;-76
2023/09/18 04:09:43;;;;;;;;;;;16.40;99.90;;;;;;5083849;28;19920;-76
2023/09/18 04:12:10;;;;;;;;;;;16.40;99.90;;;;;;5083013;28;19920;-76
2023/09/18 04:14:38;;;;;;;;;;;16.40;99.90;;;;;;5083384;28;20109;-76
2023/09/18 04:17:04;;;;;;;;;;;16.50;99.90;;;;;;5083556;28;20182;-76
2023/09/18 04:19:31;;;;;;;;;;;16.50;99.90;;;;;;5083413;28;19927;-76
2023/09/18 04:21:57;;;;;;;;;;;16.60;99.90;;;;;;5088279;28;20206;-76
2023/09/18 04:24:24;;;;;;;;;;;16.60;99.90;;;;;;5091785;28;19920;-76
2023/09/18 04:26:51;;;;;;;;;;;16.60;99.90;;;;;;5096484;28;20120;-76
2023/09/18 04:29:18;;;;;;;;;;;16.70;99.90;;;;;;5088616;28;19920;-76
2023/09/18 04:31:46;;;;;;;;;;;16.70;99.90;;;;;;5086771;28;20214;-76
2023/09/18 04:34:13;;;;;;;;;;;16.70;99.90;;;;;;5079992;28;19921;-76
2023/09/18 04:36:41;;;;;;;;;;;16.70;99.90;;;;;;5083642;28;19920;-76
2023/09/18 04:39:09;;;;;;;;;;;16.70;99.90;;;;;;5083654;28;19928;-76
2023/09/18 04:41:36;;;;;;;;;;;16.70;99.90;;;;;;5086129;28;19995;-76
2023/09/18 04:44:04;;;;;;;;;;;16.70;99.90;;;;;;5087557;28;19987;-76
2023/09/18 04:46:31;;;;;;;;;;;16.70;99.90;;;;;;5087314;28;19921;-76
2023/09/18 04:48:59;;;;;;;;;;;16.60;99.90;;;;;;5087284;28;19921;-75
2023/09/18 04:51:26;;;;;;;;;;;16.60;99.90;;;;;;5087286;28;20210;-75
2023/09/18 04:53:54;;;;;;;;;;;16.60;99.90;;;;;;5087362;28;19987;-76
2023/09/18 04:56:21;;;;;;;;;;;16.60;99.90;;;;;;5086990;28;19920;-73
2023/09/18 04:58:47;;;;;;;;;;;16.60;99.90;;;;;;5087007;28;19928;-75
2023/09/18 05:01:15;;;;;;;;;;;16.60;99.90;;;;;;5092499;28;19983;-75
2023/09/18 05:03:42;;;;;;;;;;;16.60;99.90;;;;;;5087545;28;19924;-75
2023/09/18 05:06:10;;;;;;;;;;;16.70;99.90;;;;;;5086431;28;20370;-75
2023/09/18 05:08:36;;;;;;;;;;;16.70;99.90;;;;;;5090436;28;19921;-75
2023/09/18 05:11:02;;;;;;;;;;;16.70;99.90;;;;;;5086842;28;19916;-75
2023/09/18 05:13:29;;;;;;;;;;;16.80;99.90;;;;;;5086144;28;19920;-75
2023/09/18 05:15:55;;;;;;;;;;;16.80;99.90;;;;;;5085643;28;19987;-75
2023/09/18 05:18:22;;;;;;;;;;;16.80;99.90;;;;;;5084658;28;19987;-75
2023/09/18 05:20:49;;;;;;;;;;;16.90;99.90;;;;;;5089194;28;20217;-75
2023/09/18 05:23:18;;;;;;;;;;;16.90;99.90;;;;;;5086597;28;19959;-75
2023/09/18 05:25:45;;;;;;;;;;;16.90;99.90;;;;;;5086016;28;19932;-76
2023/09/18 05:28:11;;;;;;;;;;;16.90;99.90;;;;;;5089637;28;19920;-76
2023/09/18 05:30:39;;;;;;;;;;;17.00;99.90;;;;;;5091108;28;20206;-74
2023/09/18 05:33:07;;;;;;;;;;;17.00;99.90;;;;;;5086088;28;19924;-71
2023/09/18 05:35:34;;;;;;;;;;;17.00;99.90;;;;;;5085752;28;19920;-74
2023/09/18 05:38:00;;;;;;;;;;;17.00;99.90;;;;;;5086169;28;19992;-74
2023/09/18 05:40:29;;;;;;;;;;;17.00;99.90;;;;;;5086084;28;19920;-74
2023/09/18 05:42:56;;;;;;;;;;;17.00;99.90;;;;;;5086534;28;19978;-74
2023/09/18 05:45:23;;;;;;;;;;;17.00;99.90;;;;;;5085947;28;20183;-74
2023/09/18 05:47:50;;;;;;;;;;;17.00;99.90;;;;;;5085745;28;19991;-74
2023/09/18 05:50:16;;;;;;;;;;;17.00;99.90;;;;;;5085177;28;19991;-74
2023/09/18 05:52:44;;;;;;;;;;;17.00;99.90;;;;;;5081268;28;21041;-74
2023/09/18 05:55:11;;;;;;;;;;;17.00;99.90;;;;;;5088905;28;19947;-75
2023/09/18 05:57:39;;;;;;;;;;;17.00;99.90;;;;;;5085543;28;19966;-74
2023/09/18 06:00:06;;;;;;;;;;;17.10;99.90;;;;;;5085237;28;19959;-73
2023/09/18 06:02:32;;;;;;;;;;;17.10;99.90;;;;;;5086314;28;19987;-74
2023/09/18 06:05:00;;;;;;;;;;;17.10;99.90;;;;;;5085347;28;19920;-74
2023/09/18 06:07:27;;;;;;;;;;;17.20;99.90;;;;;;5089262;28;19924;-73
2023/09/18 06:09:54;;;;;;;;;;;17.30;99.90;;;;;;5085871;28;19951;-73
2023/09/18 06:12:20;;;;;;;;;;;17.30;99.90;;;;;;5089506;28;19959;-74
2023/09/18 06:14:49;;;;;;;;;;;17.30;99.90;;;;;;5081671;28;19920;-73
2023/09/18 06:17:15;;;;;;;;;;;17.40;99.90;;;;;;5082864;28;19920;-74
2023/09/18 06:19:42;;;;;;;;;;;17.40;99.90;;;;;;5081382;28;19963;-74
2023/09/18 06:22:08;;;;;;;;;;;17.50;99.90;;;;;;5085643;28;19928;-74
2023/09/18 06:24:35;;;;;;;;;;;17.60;99.90;;;;;;5087958;28;20210;-73
2023/09/18 06:27:01;;;;;;;;;;;17.60;99.90;;;;;;5085833;28;19987;-76
2023/09/18 06:29:27;;;;;;;;;;;17.70;99.90;;;;;;5088967;28;19916;-75
2023/09/18 06:31:55;;;;;;;;;;;17.70;99.90;;;;;;5085559;28;19983;-74
2023/09/18 06:34:22;;;;;;;;;;;17.80;99.90;;;;;;5083291;28;19988;-75
2023/09/18 06:36:49;;;;;;;;;;;17.80;99.90;;;;;;5085120;28;20261;-75
2023/09/18 06:39:16;;;;;;;;;;;17.90;99.90;;;;;;5085721;28;19956;-74
2023/09/18 06:41:42;;;;;;;;;;;18.00;99.90;;;;;;5086359;28;19983;-74
2023/09/18 06:44:10;;;;;;;;;;;18.00;99.90;;;;;;5090602;28;19952;-74
2023/09/18 06:46:36;;;;;;;;;;;18.10;99.90;;;;;;5100625;28;20162;-74
2023/09/18 06:49:04;;;;;;;;;;;18.20;99.90;;;;;;5087409;28;19927;-75
2023/09/18 06:51:31;;;;;;;;;;;18.30;99.90;;;;;;5088226;28;19988;-75
2023/09/18 06:53:58;;;;;;;;;;;18.40;99.90;;;;;;5085023;28;19927;-75
2023/09/18 06:56:24;;;;;;;;;;;18.50;99.90;;;;;;5084721;28;19925;-75
2023/09/18 06:58:52;;;;;;;;;;;18.60;99.90;;;;;;5084989;28;19924;-74
2023/09/18 07:01:19;;;;;;;;;;;18.70;99.90;;;;;;5084686;28;19920;-75
2023/09/18 07:03:46;;;;;;;;;;;18.80;99.90;;;;;;5083888;28;19982;-75
2023/09/18 07:06:15;;;;;;;;;;;18.90;99.90;;;;;;5080982;28;19920;-75
2023/09/18 07:08:42;;;;;;;;;;;19.00;99.90;;;;;;5084637;28;19952;-75
2023/09/18 07:11:09;;;;;;;;;;;19.20;99.90;;;;;;5084770;28;19948;-75
2023/09/18 07:13:35;;;;;;;;;;;19.20;99.90;;;;;;5084568;28;20236;-75
2023/09/18 07:16:03;;;;;;;;;;;19.30;99.90;;;;;;5084219;28;19959;-75
2023/09/18 07:18:30;;;;;;;;;;;19.30;99.90;;;;;;5084625;28;20145;-75
2023/09/18 07:20:57;;;;;;;;;;;19.40;99.90;;;;;;5084331;28;19995;-75
2023/09/18 07:23:25;;;;;;;;;;;19.50;99.90;;;;;;5087829;28;19920;-75
2023/09/18 07:25:51;;;;;;;;;;;19.60;99.90;;;;;;5084066;28;19948;-75
2023/09/18 07:28:19;;;;;;;;;;;19.70;99.90;;;;;;5083337;28;20305;-75
2023/09/18 07:30:46;;;;;;;;;;;19.90;99.90;;;;;;5085535;28;20110;-75
2023/09/18 07:33:12;;;;;;;;;;;20.00;99.90;;;;;;5091065;28;19960;-74
2023/09/18 07:35:40;;;;;;;;;;;20.10;99.90;;;;;;5088652;28;19952;-74
2023/09/18 07:38:06;;;;;;;;;;;20.20;99.90;;;;;;5084103;28;19966;-74
2023/09/18 07:40:35;;;;;;;;;;;20.20;99.90;;;;;;5083978;28;19927;-74
2023/09/18 07:43:02;;;;;;;;;;;20.30;99.90;;;;;;5084473;28;19952;-74
2023/09/18 07:45:29;;;;;;;;;;;20.40;99.90;;;;;;5082993;28;19928;-74
2023/09/18 07:47:55;;;;;;;;;;;20.40;99.90;;;;;;5082155;28;19921;-74
2023/09/18 07:50:22;;;;;;;;;;;20.60;99.90;;;;;;5083937;28;19948;-74
2023/09/18 07:52:48;;;;;;;;;;;20.70;99.90;;;;;;5084128;28;19959;-74
2023/09/18 07:55:15;;;;;;;;;;;20.70;99.90;;;;;;5083198;28;19958;-74
2023/09/18 07:57:45;;;;;;;;;;;20.70;99.90;;;;;;5083640;28;19927;-74
2023/09/18 08:00:13;;;;;;;;;;;20.80;99.90;;;;;;5083305;28;19921;-75
2023/09/18 08:02:39;;;;;;;;;;;20.90;99.90;;;;;;5090112;28;19995;-75
2023/09/18 08:05:07;;;;;;;;;;;20.90;99.90;;;;;;5085394;28;19920;-74
2023/09/18 08:07:35;;;;;;;;;;;21.00;99.90;;;;;;5083445;28;19954;-74
2023/09/18 08:10:01;;;;;;;;;;;21.10;99.90;;;;;;5083635;28;20154;-74
2023/09/18 08:12:28;;;;;;;;;;;21.10;99.90;;;;;;5083799;28;19952;-75
2023/09/18 08:14:58;;;;;;;;;;;21.20;99.90;;;;;;5082811;28;19995;-74
2023/09/18 08:17:25;;;;;;;;;;;21.30;99.90;;;;;;5083469;28;19991;-74
2023/09/18 08:19:52;;;;;;;;;;;21.40;99.90;;;;;;5083456;28;20022;-74
2023/09/18 08:22:20;;;;;;;;;;;21.50;99.90;;;;;;5083649;28;19920;-74
2023/09/18 08:24:47;;;;;;;;;;;21.60;99.90;;;;;;5082905;28;19974;-74
2023/09/18 08:27:16;;;;;;;;;;;21.60;99.90;;;;;;5079753;28;19984;-74
2023/09/18 08:29:43;;;;;;;;;;;21.70;99.90;;;;;;5083391;28;19943;-74
2023/09/18 08:32:11;;;;;;;;;;;21.70;99.90;;;;;;5089891;28;19982;-74
2023/09/18 08:34:38;;;;;;;;;;;21.90;99.90;;;;;;5078020;28;19948;-74
2023/09/18 08:37:04;;;;;;;;;;;22.00;99.90;;;;;;5082102;28;19988;-74
2023/09/18 08:39:32;;;;;;;;;;;22.10;99.90;;;;;;5083297;28;20262;-74
2023/09/18 08:42:03;;;;;;;;;;;22.10;99.90;;;;;;5083930;28;19920;-74
2023/09/18 08:44:30;;;;;;;;;;;22.20;99.90;;;;;;5079687;28;19948;-74
2023/09/18 08:46:57;;;;;;;;;;;22.30;99.90;;;;;;5083388;28;19995;-74
2023/09/18 08:49:25;;;;;;;;;;;22.40;99.90;;;;;;5081600;28;19951;-75
2023/09/18 08:51:52;;;;;;;;;;;22.50;99.90;;;;;;5080256;28;20138;-74
2023/09/18 08:54:18;;;;;;;;;;;22.60;99.90;;;;;;5083226;28;19987;-75
2023/09/18 08:56:45;;;;;;;;;;;22.60;99.90;;;;;;5083445;28;19952;-74
2023/09/18 08:59:13;;;;;;;;;;;22.70;99.90;;;;;;5083064;28;19992;-74
2023/09/18 09:01:40;;;;;;;;;;;22.80;99.90;;;;;;5081388;28;19932;-74
2023/09/18 09:04:06;;;;;;;;;;;22.90;99.90;;;;;;5089964;28;19955;-74
2023/09/18 09:06:36;;;;;;;;;;;23.00;99.90;;;;;;5083408;28;19928;-74
2023/09/18 09:09:02;;;;;;;;;;;23.00;99.90;;;;;;5086376;28;19921;-74
2023/09/18 09:11:29;;;;;;;;;;;23.20;99.90;;;;;;5082876;28;19952;-73
2023/09/18 09:14:09;;;;;;;;;;;23.20;99.90;;;;;;5084175;28;19987;-73
2023/09/18 09:16:36;;;;;;;;;;;23.20;99.90;;;;;;5083187;28;19921;-75
2023/09/18 09:19:03;;;;;;;;;;;23.30;99.90;;;;;;5083169;28;20126;-75
2023/09/18 09:21:40;;;;;;;;;;;23.30;99.90;;;;;;5082700;28;19920;-75
2023/09/18 09:24:07;;;;;;;;;;;23.40;99.90;;;;;;5081849;28;19920;-73
2023/09/18 09:26:35;;;;;;;;;;;23.40;99.90;;;;;;5083453;28;20004;-75
2023/09/18 09:29:15;;;;;;;;;;;23.40;99.90;;;;;;5086875;28;19921;-75
2023/09/18 09:31:41;;;;;;;;;;;23.40;99.90;;;;;;5082432;28;19979;-74
2023/09/18 09:34:08;;;;;;;;;;;23.30;99.90;;;;;;5086121;28;19955;-74
2023/09/18 09:36:35;;;;;;;;;;;23.30;99.90;;;;;;5086277;28;19924;-74
2023/09/18 09:39:05;;;;;;;;;;;23.30;99.90;;;;;;5086769;28;19921;-74
2023/09/18 09:41:33;;;;;;;;;;;23.20;99.90;;;;;;5086539;28;19928;-74
2023/09/18 09:44:00;;;;;;;;;;;23.20;99.90;;;;;;5086041;28;19951;-74
2023/09/18 09:46:27;;;;;;;;;;;23.20;99.90;;;;;;5091107;28;19959;-74
2023/09/18 09:49:01;;;;;;;;;;;23.20;99.90;;;;;;5085461;28;19921;-74
2023/09/18 09:51:28;;;;;;;;;;;23.20;99.90;;;;;;5083016;28;19943;-74
2023/09/18 09:53:54;;;;;;;;;;;23.20;99.90;;;;;;5085836;28;19954;-75
2023/09/18 09:56:22;;;;;;;;;;;23.20;99.90;;;;;;5085537;28;19920;-74
2023/09/18 09:59:03;;;;;;;;;;;23.30;99.90;;;;;;5086396;28;19966;-74
2023/09/18 10:01:31;;;;;;;;;;;23.40;99.90;;;;;;5084930;28;20149;-74
2023/09/18 10:04:00;;;;;;;;;;;23.40;99.90;;;;;;5084455;28;19963;-74
2023/09/18 10:06:29;;;;;;;;;;;23.40;99.90;;;;;;5085504;28;19928;-74
2023/09/18 10:08:56;;;;;;;;;;;23.40;99.90;;;;;;5086075;28;19920;-74
2023/09/18 10:11:24;;;;;;;;;;;23.40;99.90;;;;;;5085649;28;20145;-74
2023/09/18 10:13:54;;;;;;;;;;;23.30;99.90;;;;;;5086051;28;19992;-74
2023/09/18 10:16:25;;;;;;;;;;;23.40;99.90;;;;;;5085786;28;19924;-74
2023/09/18 10:18:57;;;;;;;;;;;23.40;99.90;;;;;;5085909;28;19955;-74
2023/09/18 10:21:31;;;;;;;;;;;23.40;99.90;;;;;;5085659;28;19921;-73
2023/09/18 10:24:00;;;;;;;;;;;23.40;99.90;;;;;;5085859;28;19959;-74
2023/09/18 10:26:29;;;;;;;;;;;23.40;99.90;;;;;;5085296;28;20121;-75
2023/09/18 10:28:58;;;;;;;;;;;23.40;99.90;;;;;;5085657;28;19942;-75
2023/09/18 10:31:25;;;;;;;;;;;23.40;99.90;;;;;;5085589;28;19920;-74
2023/09/18 10:33:53;;;;;;;;;;;23.40;99.90;;;;;;5085168;28;19958;-74
2023/09/18 10:36:20;;;;;;;;;;;23.30;99.90;;;;;;5085174;28;19920;-75
2023/09/18 10:38:50;;;;;;;;;;;23.30;99.90;;;;;;5085374;28;19987;-75
2023/09/18 10:41:17;;;;;;;;;;;23.20;99.90;;;;;;5089152;28;19919;-74
2023/09/18 10:43:46;;;;;;;;;;;23.20;99.90;;;;;;5093151;28;20003;-75
2023/09/18 10:46:13;;;;;;;;;;;23.20;99.90;;;;;;5089702;28;19992;-73
2023/09/18 10:48:41;;;;;;;;;;;23.10;99.90;;;;;;5089209;28;19961;-75
2023/09/18 10:51:07;;;;;;;;;;;23.10;99.90;;;;;;5085646;28;19987;-75
2023/09/18 10:53:35;;;;;;;;;;;23.10;99.90;;;;;;5085253;28;19948;-75
2023/09/18 10:56:02;;;;;;;;;;;23.10;99.90;;;;;;5084468;28;19984;-72
2023/09/18 10:58:30;;;;;;;;;;;23.10;99.90;;;;;;5085003;28;19920;-73
2023/09/18 11:01:00;;;;;;;;;;;23.10;99.90;;;;;;5084732;28;19988;-73
2023/09/18 11:03:26;;;;;;;;;;;23.10;99.90;;;;;;5084866;28;20008;-72
2023/09/18 11:06:03;;;;;;;;;;;23.00;99.90;;;;;;5082978;28;19926;-72
2023/09/18 11:08:33;;;;;;;;;;;23.00;99.90;;;;;;5084575;28;19927;-73
2023/09/18 11:11:04;;;;;;;;;;;23.00;99.90;;;;;;5084790;28;19942;-74
2023/09/18 11:13:36;;;;;;;;;;;22.90;99.90;;;;;;5085013;28;20141;-72
2023/09/18 11:16:13;;;;;;;;;;;22.90;99.90;;;;;;5084381;28;19951;-74
2023/09/18 11:18:40;;;;;;;;;;;22.80;99.90;;;;;;5079719;28;19928;-74
2023/09/18 11:21:10;;;;;;;;;;;22.80;99.90;;;;;;5084335;28;20013;-74
2023/09/18 11:23:40;;;;;;;;;;;22.70;99.90;;;;;;5083764;28;20292;-73
2023/09/18 11:26:08;;;;;;;;;;;22.60;99.90;;;;;;5083274;28;19920;-73
2023/09/18 11:28:35;;;;;;;;;;;22.60;99.90;;;;;;5084481;28;19988;-73
2023/09/18 11:31:02;;;;;;;;;;;22.40;99.90;;;;;;5084310;28;19955;-74
2023/09/18 11:33:36;;;;;;;;;;;22.30;99.90;;;;;;5084619;28;19943;-73
2023/09/18 11:36:06;;;;;;;;;;;22.20;99.90;;;;;;5085968;28;20181;-73
2023/09/18 11:38:35;;;;;;;;;;;22.00;99.90;;;;;;5078437;28;20123;-73
2023/09/18 11:41:20;;;;;;;;;;;21.80;99.90;;;;;;5082445;28;20167;-72
2023/09/18 11:43:47;;;;;;;;;;;21.60;99.90;;;;;;5078367;28;20122;-72
2023/09/18 11:46:18;;;;;;;;;;;21.30;99.90;;;;;;5088215;28;19989;-74
2023/09/18 11:48:49;;;;;;;;;;;21.10;99.90;;;;;;5083462;28;19979;-74
2023/09/18 11:51:21;;;;;;;;;;;20.90;99.90;;;;;;5078154;28;19920;-72
2023/09/18 11:53:48;;;;;;;;;;;20.70;99.90;;;;;;5083220;28;20006;-73
2023/09/18 11:56:17;;;;;;;;;;;20.50;99.90;;;;;;5086427;28;19960;-73
2023/09/18 11:58:47;;;;;;;;;;;20.40;99.90;;;;;;5083984;28;19940;-73
2023/09/18 12:01:15;;;;;;;;;;;20.30;99.90;;;;;;5083956;28;19927;-72
2023/09/18 12:03:41;;;;;;;;;;;20.20;99.90;;;;;;5078770;28;19962;-73
2023/09/18 12:06:12;;;;;;;;;;;20.00;99.90;;;;;;5082950;28;20023;-73
2023/09/18 12:08:39;;;;;;;;;;;19.90;99.90;;;;;;5085906;28;19921;-72
2023/09/18 12:11:07;;;;;;;;;;;19.90;99.90;;;;;;5084885;28;19984;-72
2023/09/18 12:13:33;;;;;;;;;;;19.70;99.90;;;;;;5083501;28;19952;-72
2023/09/18 12:16:01;;;;;;;;;;;19.70;99.90;;;;;;5082693;28;20254;-73
2023/09/18 12:18:29;;;;;;;;;;;19.70;99.90;;;;;;5083595;28;19980;-73
2023/09/18 12:20:58;;;;;;;;;;;19.70;99.90;;;;;;5083539;28;19929;-73
2023/09/18 12:23:27;;;;;;;;;;;19.70;99.90;;;;;;5081689;28;19959;-73
2023/09/18 12:25:59;;;;;;;;;;;19.60;99.90;;;;;;5082976;28;19921;-74
2023/09/18 12:28:28;;;;;;;;;;;19.50;99.90;;;;;;5083171;28;20022;-73
2023/09/18 12:30:56;;;;;;;;;;;19.40;99.90;;;;;;5083275;28;19921;-73
2023/09/18 12:33:22;;;;;;;;;;;19.30;99.90;;;;;;5083248;28;20096;-75
2023/09/18 12:35:50;;;;;;;;;;;19.30;99.90;;;;;;5083044;28;19956;-73
2023/09/18 12:38:19;;;;;;;;;;;19.30;99.90;;;;;;5080980;28;20363;-72
2023/09/18 12:40:47;;;;;;;;;;;19.30;99.90;;;;;;5079028;28;20126;-73
2023/09/18 12:43:15;;;;;;;;;;;19.30;99.90;;;;;;5082874;28;19927;-73
2023/09/18 12:45:42;;;;;;;;;;;19.30;99.90;;;;;;5082412;28;19920;-73
2023/09/18 12:48:10;;;;;;;;;;;19.30;99.90;;;;;;5081460;28;19983;-74
2023/09/18 12:50:37;;;;;;;;;;;19.30;99.90;;;;;;5083096;28;19965;-73
2023/09/18 12:53:10;;;;;;;;;;;19.20;99.90;;;;;;5085387;28;19920;-73
2023/09/18 12:55:37;;;;;;;;;;;19.10;99.90;;;;;;5082691;28;19956;-73
2023/09/18 12:58:07;;;;;;;;;;;19.10;99.90;;;;;;5083107;28;19988;-73
2023/09/18 13:00:34;;;;;;;;;;;19.00;99.90;;;;;;5080719;28;19921;-73
2023/09/18 13:03:04;;;;;;;;;;;19.00;99.90;;;;;;5086007;28;19920;-72
2023/09/18 13:05:32;;;;;;;;;;;19.00;99.90;;;;;;5085399;28;19921;-72
2023/09/18 13:08:02;;;;;;;;;;;18.90;99.90;;;;;;5087036;28;19966;-73
2023/09/18 13:10:29;;;;;;;;;;;18.90;99.90;;;;;;5086983;28;19979;-72
2023/09/18 13:12:56;;;;;;;;;;;18.90;99.90;;;;;;5088301;28;19921;-73
2023/09/18 13:15:28;;;;;;;;;;;18.80;99.90;;;;;;5088633;28;19920;-73
2023/09/18 13:17:55;;;;;;;;;;;18.80;99.90;;;;;;5089791;28;19920;-74
2023/09/18 13:20:24;;;;;;;;;;;18.70;99.90;;;;;;5084240;28;19976;-73
2023/09/18 13:22:51;;;;;;;;;;;18.70;99.90;;;;;;5086744;28;19921;-73
2023/09/18 13:25:21;;;;;;;;;;;18.70;99.90;;;;;;5090797;28;19987;-73
2023/09/18 13:27:48;;;;;;;;;;;18.60;99.90;;;;;;5086405;28;19997;-73
2023/09/18 13:30:16;;;;;;;;;;;18.60;99.90;;;;;;5085049;28;19924;-73
2023/09/18 13:32:45;;;;;;;;;;;18.60;99.90;;;;;;5085865;28;19920;-74
2023/09/18 13:35:13;;;;;;;;;;;18.60;99.90;;;;;;5091603;28;19975;-73
2023/09/18 13:37:40;;;;;;;;;;;18.60;99.90;;;;;;5091772;28;19921;-74
2023/09/18 13:40:08;;;;;;;;;;;18.60;99.90;;;;;;5086268;28;20218;-73
2023/09/18 13:42:35;;;;;;;;;;;18.60;99.90;;;;;;5086233;28;19920;-73
2023/09/18 13:45:04;;;;;;;;;;;18.50;99.90;;;;;;5096020;28;19955;-75
2023/09/18 13:47:31;;;;;;;;;;;18.50;99.90;;;;;;5086022;28;20210;-73
2023/09/18 13:49:59;;;;;;;;;;;18.40;99.90;;;;;;5086430;28;19962;-73
2023/09/18 13:52:26;;;;;;;;;;;18.50;99.90;;;;;;5085908;28;19920;-74
2023/09/18 13:54:53;;;;;;;;;;;18.40;99.90;;;;;;5085947;28;19980;-74
2023/09/18 13:57:20;;;;;;;;;;;18.30;99.90;;;;;;5086237;28;19921;-74
2023/09/18 13:59:48;;;;;;;;;;;18.30;99.90;;;;;;5085958;28;19920;-73
2023/09/18 14:02:15;;;;;;;;;;;18.20;99.90;;;;;;5085659;28;19926;-73
2023/09/18 14:04:42;;;;;;;;;;;18.20;99.90;;;;;;5084774;28;19977;-73
2023/09/18 14:07:10;;;;;;;;;;;18.20;99.90;;;;;;5084601;28;20126;-74
2023/09/18 14:09:37;;;;;;;;;;;18.20;99.90;;;;;;5089434;28;19946;-73
2023/09/18 14:12:05;;;;;;;;;;;18.20;99.90;;;;;;5085643;28;19980;-73
2023/09/18 14:14:32;;;;;;;;;;;18.20;99.90;;;;;;5085365;28;19932;-73
2023/09/18 14:16:59;;;;;;;;;;;18.20;99.90;;;;;;5091112;28;19924;-74
2023/09/18 14:19:25;;;;;;;;;;;18.10;99.90;;;;;;5086022;28;19952;-74